sensor_id;sensor_type;location;lat;lon;timestamp;temperature;humidity
23540;DHT22;11947;50.810;4.394;2022-11-20T00:00:16;5.10;99.90
23540;DHT22;11947;50.810;4.394;2022-11-20T00:02:45;5.10;99.90
23540;DHT22;11947;50.810;4.394;2022-11-20T00:06:20;5.20;99.90
23540;DHT22;11947;50.810;4.394;2022-11-20T00:08:42;5.20;99.90
23540;DHT22;11947;50.810;4.394;2022-11-20T00:11:15;5.20;99.90
23540;DHT22;11947;50.810;4.394;2022-11-20T00:13:42;5.20;99.90
23540;DHT22;11947;50.810;4.394;2022-11-20T00:16:10;5.20;99.90
23540;DHT22;11947;50.810;4.394;2022-11-20T00:18:41;5.30;99.90
23540;DHT22;11947;50.810;4.394;2022-11-20T00:21:22;5.30;99.90
23540;DHT22;11947;50.810;4.394;2022-11-20T00:23:54;5.20;99.90
23540;DHT22;11947;50.810;4.394;2022-11-20T00:26:26;5.30;99.90
23540;DHT22;11947;50.810;4.394;2022-11-20T00:28:57;5.30;99.90
23540;DHT22;11947;50.810;4.394;2022-11-20T00:31:24;5.10;99.90
23540;DHT22;11947;50.810;4.394;2022-11-20T00:33:52;5.20;99.90
23540;DHT22;11947;50.810;4.394;2022-11-20T00:36:24;5.10;99.90
23540;DHT22;11947;50.810;4.394;2022-11-20T00:38:54;5.20;99.90
23540;DHT22;11947;50.810;4.394;2022-11-20T00:41:20;5.20;99.90
23540;DHT22;11947;50.810;4.394;2022-11-20T00:43:46;5.20;99.90
23540;DHT22;11947;50.810;4.394;2022-11-20T00:46:20;5.20;99.90
23540;DHT22;11947;50.810;4.394;2022-11-20T00:48:46;5.10;99.90
23540;DHT22;11947;50.810;4.394;2022-11-20T00:51:17;5.30;99.90
23540;DHT22;11947;50.810;4.394;2022-11-20T00:53:44;5.30;99.90
23540;DHT22;11947;50.810;4.394;2022-11-20T00:56:14;5.30;99.90
23540;DHT22;11947;50.810;4.394;2022-11-20T01:19:24;5.20;99.90
23540;DHT22;11947;50.810;4.394;2022-11-20T01:21:52;5.20;99.90
23540;DHT22;11947;50.810;4.394;2022-11-20T01:24:19;5.20;99.90
23540;DHT22;11947;50.810;4.394;2022-11-20T01:26:49;5.20;99.90
23540;DHT22;11947;50.810;4.394;2022-11-20T01:29:32;5.30;99.90
23540;DHT22;11947;50.810;4.394;2022-11-20T01:31:58;5.30;99.90
23540;DHT22;11947;50.810;4.394;2022-11-20T01:34:27;5.40;99.90
23540;DHT22;11947;50.810;4.394;2022-11-20T01:36:52;5.30;99.90
23540;DHT22;11947;50.810;4.394;2022-11-20T01:39:24;5.20;99.90
23540;DHT22;11947;50.810;4.394;2022-11-20T01:41:51;5.30;99.90
23540;DHT22;11947;50.810;4.394;2022-11-20T01:44:53;5.20;99.90
23540;DHT22;11947;50.810;4.394;2022-11-20T01:47:30;5.30;99.90
23540;DHT22;11947;50.810;4.394;2022-11-20T01:50:12;5.30;99.90
23540;DHT22;11947;50.810;4.394;2022-11-20T01:52:53;5.30;99.90
23540;DHT22;11947;50.810;4.394;2022-11-20T01:55:30;5.40;99.90
23540;DHT22;11947;50.810;4.394;2022-11-20T01:57:57;5.30;99.90
23540;DHT22;11947;50.810;4.394;2022-11-20T02:00:23;5.30;99.90
23540;DHT22;11947;50.810;4.394;2022-11-20T02:02:57;5.50;99.90
23540;DHT22;11947;50.810;4.394;2022-11-20T02:05:38;5.50;99.90
23540;DHT22;11947;50.810;4.394;2022-11-20T02:08:10;5.50;99.90
23540;DHT22;11947;50.810;4.394;2022-11-20T02:10:36;5.50;99.90
23540;DHT22;11947;50.810;4.394;2022-11-20T02:13:02;5.60;99.90
23540;DHT22;11947;50.810;4.394;2022-11-20T02:15:47;5.60;99.90
23540;DHT22;11947;50.810;4.394;2022-11-20T02:18:16;5.50;99.90
23540;DHT22;11947;50.810;4.394;2022-11-20T02:20:48;5.60;99.90
23540;DHT22;11947;50.810;4.394;2022-11-20T02:23:25;5.60;99.90
23540;DHT22;11947;50.810;4.394;2022-11-20T02:25:54;5.60;99.90
23540;DHT22;11947;50.810;4.394;2022-11-20T02:28:21;5.50;99.90
23540;DHT22;11947;50.810;4.394;2022-11-20T02:30:47;5.60;99.90
23540;DHT22;11947;50.810;4.394;2022-11-20T02:33:18;5.60;99.90
23540;DHT22;11947;50.810;4.394;2022-11-20T02:35:46;5.70;99.90
23540;DHT22;11947;50.810;4.394;2022-11-20T02:38:16;5.70;99.90
23540;DHT22;11947;50.810;4.394;2022-11-20T02:40:42;5.70;99.90
23540;DHT22;11947;50.810;4.394;2022-11-20T02:43:08;5.70;99.90
23540;DHT22;11947;50.810;4.394;2022-11-20T02:45:34;5.70;99.90
23540;DHT22;11947;50.810;4.394;2022-11-20T02:48:00;5.70;99.90
23540;DHT22;11947;50.810;4.394;2022-11-20T02:50:26;5.70;99.90
23540;DHT22;11947;50.810;4.394;2022-11-20T02:53:12;5.50;99.90
23540;DHT22;11947;50.810;4.394;2022-11-20T02:55:37;5.60;99.90
23540;DHT22;11947;50.810;4.394;2022-11-20T02:58:03;5.60;99.90
23540;DHT22;11947;50.810;4.394;2022-11-20T03:00:29;5.50;99.90
23540;DHT22;11947;50.810;4.394;2022-11-20T03:41:40;5.30;99.90
23540;DHT22;11947;50.810;4.394;2022-11-20T03:44:09;5.30;99.90
23540;DHT22;11947;50.810;4.394;2022-11-20T03:46:36;5.20;99.90
23540;DHT22;11947;50.810;4.394;2022-11-20T03:49:02;5.30;99.90
23540;DHT22;11947;50.810;4.394;2022-11-20T03:51:30;5.30;99.90
23540;DHT22;11947;50.810;4.394;2022-11-20T03:53:59;5.30;99.90
23540;DHT22;11947;50.810;4.394;2022-11-20T03:56:28;5.30;99.90
23540;DHT22;11947;50.810;4.394;2022-11-20T03:58:54;5.30;99.90
23540;DHT22;11947;50.810;4.394;2022-11-20T04:01:22;5.40;99.90
23540;DHT22;11947;50.810;4.394;2022-11-20T04:03:48;5.40;99.90
23540;DHT22;11947;50.810;4.394;2022-11-20T04:06:28;5.50;99.90
23540;DHT22;11947;50.810;4.394;2022-11-20T04:08:56;5.50;99.90
23540;DHT22;11947;50.810;4.394;2022-11-20T04:11:29;5.60;99.90
23540;DHT22;11947;50.810;4.394;2022-11-20T04:14:11;5.50;99.90
23540;DHT22;11947;50.810;4.394;2022-11-20T04:16:37;5.50;99.90
23540;DHT22;11947;50.810;4.394;2022-11-20T04:19:10;5.50;99.90
23540;DHT22;11947;50.810;4.394;2022-11-20T04:21:36;5.50;99.90
23540;DHT22;11947;50.810;4.394;2022-11-20T04:24:07;5.60;99.90
23540;DHT22;11947;50.810;4.394;2022-11-20T04:26:34;5.60;99.90
23540;DHT22;11947;50.810;4.394;2022-11-20T04:29:00;5.70;99.90
23540;DHT22;11947;50.810;4.394;2022-11-20T04:31:32;5.70;99.90
23540;DHT22;11947;50.810;4.394;2022-11-20T04:34:05;5.50;99.90
23540;DHT22;11947;50.810;4.394;2022-11-20T04:36:32;5.60;99.90
23540;DHT22;11947;50.810;4.394;2022-11-20T04:39:04;5.60;99.90
23540;DHT22;11947;50.810;4.394;2022-11-20T04:41:32;5.40;99.90
23540;DHT22;11947;50.810;4.394;2022-11-20T04:43:59;5.50;99.90
23540;DHT22;11947;50.810;4.394;2022-11-20T04:46:30;5.40;99.90
23540;DHT22;11947;50.810;4.394;2022-11-20T04:48:56;5.50;99.90
23540;DHT22;11947;50.810;4.394;2022-11-20T04:51:25;5.60;99.90
23540;DHT22;11947;50.810;4.394;2022-11-20T04:53:51;5.70;99.90
23540;DHT22;11947;50.810;4.394;2022-11-20T04:56:22;5.60;99.90
23540;DHT22;11947;50.810;4.394;2022-11-20T04:58:48;5.60;99.90
23540;DHT22;11947;50.810;4.394;2022-11-20T05:01:46;5.60;99.90
23540;DHT22;11947;50.810;4.394;2022-11-20T05:04:17;5.70;99.90
23540;DHT22;11947;50.810;4.394;2022-11-20T05:06:44;5.70;99.90
23540;DHT22;11947;50.810;4.394;2022-11-20T05:09:13;5.60;99.90
23540;DHT22;11947;50.810;4.394;2022-11-20T05:11:42;5.60;99.90
23540;DHT22;11947;50.810;4.394;2022-11-20T05:14:07;5.60;99.90
23540;DHT22;11947;50.810;4.394;2022-11-20T05:16:35;5.70;99.90
23540;DHT22;11947;50.810;4.394;2022-11-20T05:19:01;5.70;99.90
23540;DHT22;11947;50.810;4.394;2022-11-20T05:21:31;5.80;99.90
23540;DHT22;11947;50.810;4.394;2022-11-20T05:23:57;5.70;99.90
23540;DHT22;11947;50.810;4.394;2022-11-20T05:26:23;5.80;99.90
23540;DHT22;11947;50.810;4.394;2022-11-20T05:28:54;5.80;99.90
23540;DHT22;11947;50.810;4.394;2022-11-20T05:31:22;5.80;99.90
23540;DHT22;11947;50.810;4.394;2022-11-20T05:33:49;5.70;99.90
23540;DHT22;11947;50.810;4.394;2022-11-20T05:36:15;5.80;99.90
23540;DHT22;11947;50.810;4.394;2022-11-20T05:38:42;5.70;99.90
23540;DHT22;11947;50.810;4.394;2022-11-20T05:41:11;5.80;99.90
23540;DHT22;11947;50.810;4.394;2022-11-20T05:43:38;5.80;99.90
23540;DHT22;11947;50.810;4.394;2022-11-20T05:46:06;5.70;99.90
23540;DHT22;11947;50.810;4.394;2022-11-20T05:48:36;5.70;99.90
23540;DHT22;11947;50.810;4.394;2022-11-20T05:51:04;5.70;99.90
23540;DHT22;11947;50.810;4.394;2022-11-20T05:53:32;5.70;99.90
23540;DHT22;11947;50.810;4.394;2022-11-20T05:56:03;5.80;99.90
23540;DHT22;11947;50.810;4.394;2022-11-20T05:58:30;5.70;99.90
23540;DHT22;11947;50.810;4.394;2022-11-20T06:01:14;5.60;99.90
23540;DHT22;11947;50.810;4.394;2022-11-20T06:03:41;5.60;99.90
23540;DHT22;11947;50.810;4.394;2022-11-20T06:06:17;5.70;99.90
23540;DHT22;11947;50.810;4.394;2022-11-20T06:08:43;5.70;99.90
23540;DHT22;11947;50.810;4.394;2022-11-20T06:11:12;5.80;99.90
23540;DHT22;11947;50.810;4.394;2022-11-20T06:13:44;5.80;99.90
23540;DHT22;11947;50.810;4.394;2022-11-20T06:16:12;5.70;99.90
23540;DHT22;11947;50.810;4.394;2022-11-20T06:18:38;5.70;99.90
23540;DHT22;11947;50.810;4.394;2022-11-20T06:21:08;5.80;99.90
23540;DHT22;11947;50.810;4.394;2022-11-20T06:23:35;5.60;99.90
23540;DHT22;11947;50.810;4.394;2022-11-20T06:26:03;5.50;99.90
23540;DHT22;11947;50.810;4.394;2022-11-20T06:28:29;5.40;99.90
23540;DHT22;11947;50.810;4.394;2022-11-20T06:30:54;5.50;99.90
23540;DHT22;11947;50.810;4.394;2022-11-20T06:33:20;5.50;99.90
23540;DHT22;11947;50.810;4.394;2022-11-20T06:35:46;5.40;99.90
23540;DHT22;11947;50.810;4.394;2022-11-20T06:38:12;5.60;99.90
23540;DHT22;11947;50.810;4.394;2022-11-20T06:40:43;5.70;99.90
23540;DHT22;11947;50.810;4.394;2022-11-20T06:43:11;5.70;99.90
23540;DHT22;11947;50.810;4.394;2022-11-20T06:45:37;5.90;99.90
23540;DHT22;11947;50.810;4.394;2022-11-20T06:48:03;6.00;99.90
23540;DHT22;11947;50.810;4.394;2022-11-20T06:50:29;5.90;99.90
23540;DHT22;11947;50.810;4.394;2022-11-20T06:52:55;5.80;99.90
23540;DHT22;11947;50.810;4.394;2022-11-20T06:55:21;5.70;99.90
23540;DHT22;11947;50.810;4.394;2022-11-20T06:57:47;5.70;99.90
23540;DHT22;11947;50.810;4.394;2022-11-20T07:00:13;5.80;99.90
23540;DHT22;11947;50.810;4.394;2022-11-20T07:02:40;5.90;99.90
23540;DHT22;11947;50.810;4.394;2022-11-20T07:05:06;6.00;99.90
23540;DHT22;11947;50.810;4.394;2022-11-20T07:07:31;6.00;99.90
23540;DHT22;11947;50.810;4.394;2022-11-20T07:09:57;6.00;99.90
23540;DHT22;11947;50.810;4.394;2022-11-20T07:12:23;6.10;99.90
23540;DHT22;11947;50.810;4.394;2022-11-20T07:14:48;6.20;99.90
23540;DHT22;11947;50.810;4.394;2022-11-20T07:17:14;6.30;99.90
23540;DHT22;11947;50.810;4.394;2022-11-20T07:19:40;6.30;99.90
23540;DHT22;11947;50.810;4.394;2022-11-20T07:22:05;6.30;99.90
23540;DHT22;11947;50.810;4.394;2022-11-20T07:24:31;6.40;99.90
23540;DHT22;11947;50.810;4.394;2022-11-20T07:26:57;6.40;99.90
23540;DHT22;11947;50.810;4.394;2022-11-20T07:29:22;6.40;99.90
23540;DHT22;11947;50.810;4.394;2022-11-20T07:31:48;6.30;99.90
23540;DHT22;11947;50.810;4.394;2022-11-20T07:34:14;6.20;99.90
23540;DHT22;11947;50.810;4.394;2022-11-20T07:36:40;6.30;99.90
23540;DHT22;11947;50.810;4.394;2022-11-20T07:39:05;6.20;99.90
23540;DHT22;11947;50.810;4.394;2022-11-20T07:41:31;6.30;99.90
23540;DHT22;11947;50.810;4.394;2022-11-20T07:43:57;6.40;99.90
23540;DHT22;11947;50.810;4.394;2022-11-20T07:46:25;6.20;99.90
23540;DHT22;11947;50.810;4.394;2022-11-20T07:48:51;6.30;99.90
23540;DHT22;11947;50.810;4.394;2022-11-20T07:51:37;6.40;99.90
23540;DHT22;11947;50.810;4.394;2022-11-20T07:54:05;6.40;99.90
23540;DHT22;11947;50.810;4.394;2022-11-20T07:56:31;6.40;99.90
23540;DHT22;11947;50.810;4.394;2022-11-20T07:59:00;6.20;99.90
23540;DHT22;11947;50.810;4.394;2022-11-20T08:01:25;6.40;99.90
23540;DHT22;11947;50.810;4.394;2022-11-20T08:03:51;6.40;99.90
23540;DHT22;11947;50.810;4.394;2022-11-20T08:06:19;6.30;99.90
23540;DHT22;11947;50.810;4.394;2022-11-20T08:08:45;6.40;99.90
23540;DHT22;11947;50.810;4.394;2022-11-20T08:11:11;6.30;99.90
23540;DHT22;11947;50.810;4.394;2022-11-20T08:13:55;6.50;99.90
23540;DHT22;11947;50.810;4.394;2022-11-20T08:19:05;6.70;99.90
23540;DHT22;11947;50.810;4.394;2022-11-20T08:21:31;6.80;99.90
23540;DHT22;11947;50.810;4.394;2022-11-20T08:24:00;6.90;99.90
23540;DHT22;11947;50.810;4.394;2022-11-20T08:26:26;6.80;99.90
23540;DHT22;11947;50.810;4.394;2022-11-20T08:28:59;6.80;99.90
23540;DHT22;11947;50.810;4.394;2022-11-20T08:31:26;6.80;99.90
23540;DHT22;11947;50.810;4.394;2022-11-20T08:33:54;7.00;99.90
23540;DHT22;11947;50.810;4.394;2022-11-20T08:36:32;7.00;99.90
23540;DHT22;11947;50.810;4.394;2022-11-20T08:38:58;7.10;99.90
23540;DHT22;11947;50.810;4.394;2022-11-20T08:41:24;7.10;99.90
23540;DHT22;11947;50.810;4.394;2022-11-20T08:43:57;7.20;99.90
23540;DHT22;11947;50.810;4.394;2022-11-20T08:46:30;7.30;99.90
23540;DHT22;11947;50.810;4.394;2022-11-20T08:49:05;7.50;99.90
23540;DHT22;11947;50.810;4.394;2022-11-20T08:51:31;7.60;99.90
23540;DHT22;11947;50.810;4.394;2022-11-20T08:53:58;7.50;99.90
23540;DHT22;11947;50.810;4.394;2022-11-20T08:56:24;7.50;99.90
23540;DHT22;11947;50.810;4.394;2022-11-20T08:58:51;7.50;99.90
23540;DHT22;11947;50.810;4.394;2022-11-20T09:01:20;7.60;99.90
23540;DHT22;11947;50.810;4.394;2022-11-20T09:03:49;7.70;99.90
23540;DHT22;11947;50.810;4.394;2022-11-20T09:06:15;7.90;99.90
23540;DHT22;11947;50.810;4.394;2022-11-20T09:08:46;7.70;99.90
23540;DHT22;11947;50.810;4.394;2022-11-20T09:11:12;7.90;99.90
23540;DHT22;11947;50.810;4.394;2022-11-20T09:13:43;8.00;99.90
23540;DHT22;11947;50.810;4.394;2022-11-20T09:16:09;8.10;99.90
23540;DHT22;11947;50.810;4.394;2022-11-20T09:18:38;8.30;99.90
23540;DHT22;11947;50.810;4.394;2022-11-20T09:21:10;8.30;99.90
23540;DHT22;11947;50.810;4.394;2022-11-20T09:23:39;8.40;99.90
23540;DHT22;11947;50.810;4.394;2022-11-20T09:26:11;8.60;99.90
23540;DHT22;11947;50.810;4.394;2022-11-20T09:28:38;8.50;99.90
23540;DHT22;11947;50.810;4.394;2022-11-20T09:31:06;8.50;99.90
23540;DHT22;11947;50.810;4.394;2022-11-20T09:33:31;8.60;99.90
23540;DHT22;11947;50.810;4.394;2022-11-20T09:35:57;8.60;99.90
23540;DHT22;11947;50.810;4.394;2022-11-20T09:38:23;8.60;99.90
23540;DHT22;11947;50.810;4.394;2022-11-20T09:41:02;8.50;99.90
23540;DHT22;11947;50.810;4.394;2022-11-20T09:46:14;8.70;99.90
23540;DHT22;11947;50.810;4.394;2022-11-20T09:49:22;8.70;99.90
23540;DHT22;11947;50.810;4.394;2022-11-20T09:51:58;8.90;99.90
23540;DHT22;11947;50.810;4.394;2022-11-20T09:54:33;9.00;99.90
23540;DHT22;11947;50.810;4.394;2022-11-20T09:57:07;8.80;99.90
23540;DHT22;11947;50.810;4.394;2022-11-20T09:59:36;8.70;99.90
23540;DHT22;11947;50.810;4.394;2022-11-20T10:07:47;9.30;99.90
23540;DHT22;11947;50.810;4.394;2022-11-20T10:10:37;9.40;99.90
23540;DHT22;11947;50.810;4.394;2022-11-20T10:13:17;9.40;99.90
23540;DHT22;11947;50.810;4.394;2022-11-20T10:27:25;9.60;99.90
23540;DHT22;11947;50.810;4.394;2022-11-20T10:33:00;9.90;99.90
23540;DHT22;11947;50.810;4.394;2022-11-20T10:38:23;10.20;99.90
23540;DHT22;11947;50.810;4.394;2022-11-20T10:41:00;10.20;99.90
23540;DHT22;11947;50.810;4.394;2022-11-20T10:43:46;10.30;99.90
23540;DHT22;11947;50.810;4.394;2022-11-20T10:46:21;10.50;99.90
23540;DHT22;11947;50.810;4.394;2022-11-20T11:01:50;10.40;99.90
23540;DHT22;11947;50.810;4.394;2022-11-20T11:08:12;10.50;99.90
23540;DHT22;11947;50.810;4.394;2022-11-20T11:10:59;10.50;99.90
23540;DHT22;11947;50.810;4.394;2022-11-20T11:13:30;10.80;99.90
23540;DHT22;11947;50.810;4.394;2022-11-20T11:15:56;10.90;99.90
23540;DHT22;11947;50.810;4.394;2022-11-20T11:18:24;10.90;99.90
23540;DHT22;11947;50.810;4.394;2022-11-20T11:21:04;10.80;99.90
23540;DHT22;11947;50.810;4.394;2022-11-20T11:23:42;10.90;99.90
23540;DHT22;11947;50.810;4.394;2022-11-20T11:29:35;10.70;99.90
23540;DHT22;11947;50.810;4.394;2022-11-20T11:32:15;10.60;99.90
23540;DHT22;11947;50.810;4.394;2022-11-20T11:34:45;10.70;99.90
23540;DHT22;11947;50.810;4.394;2022-11-20T11:37:17;10.50;99.90
23540;DHT22;11947;50.810;4.394;2022-11-20T11:39:48;10.40;99.90
23540;DHT22;11947;50.810;4.394;2022-11-20T11:42:46;10.00;99.90
23540;DHT22;11947;50.810;4.394;2022-11-20T11:45:23;9.90;99.90
23540;DHT22;11947;50.810;4.394;2022-11-20T11:47:51;9.90;99.90
23540;DHT22;11947;50.810;4.394;2022-11-20T11:50:26;9.60;99.90
23540;DHT22;11947;50.810;4.394;2022-11-20T11:58:44;9.10;99.90
23540;DHT22;11947;50.810;4.394;2022-11-20T12:09:35;8.70;99.90
23540;DHT22;11947;50.810;4.394;2022-11-20T12:12:20;8.50;99.90
23540;DHT22;11947;50.810;4.394;2022-11-20T12:14:51;8.60;99.90
23540;DHT22;11947;50.810;4.394;2022-11-20T12:17:18;8.60;99.90
23540;DHT22;11947;50.810;4.394;2022-11-20T12:19:44;8.50;99.90
23540;DHT22;11947;50.810;4.394;2022-11-20T12:25:17;8.50;99.90
23540;DHT22;11947;50.810;4.394;2022-11-20T12:28:19;8.50;99.90
23540;DHT22;11947;50.810;4.394;2022-11-20T12:39:02;8.30;99.90
23540;DHT22;11947;50.810;4.394;2022-11-20T12:42:05;8.40;99.90
23540;DHT22;11947;50.810;4.394;2022-11-20T12:50:38;8.20;99.90
23540;DHT22;11947;50.810;4.394;2022-11-20T12:56:37;8.30;99.90
23540;DHT22;11947;50.810;4.394;2022-11-20T12:59:26;8.30;99.90
23540;DHT22;11947;50.810;4.394;2022-11-20T13:07:12;8.30;99.90
23540;DHT22;11947;50.810;4.394;2022-11-20T13:09:45;8.30;99.90
23540;DHT22;11947;50.810;4.394;2022-11-20T13:12:18;8.30;99.90
23540;DHT22;11947;50.810;4.394;2022-11-20T13:18:01;8.30;99.90
23540;DHT22;11947;50.810;4.394;2022-11-20T13:20:27;8.40;99.90
23540;DHT22;11947;50.810;4.394;2022-11-20T13:22:55;8.40;99.90
23540;DHT22;11947;50.810;4.394;2022-11-20T13:30:49;8.40;99.90
23540;DHT22;11947;50.810;4.394;2022-11-20T13:33:38;8.50;99.90
23540;DHT22;11947;50.810;4.394;2022-11-20T13:36:19;8.60;99.90
23540;DHT22;11947;50.810;4.394;2022-11-20T13:39:08;8.50;99.90
23540;DHT22;11947;50.810;4.394;2022-11-20T13:41:38;8.40;99.90
23540;DHT22;11947;50.810;4.394;2022-11-20T13:44:37;8.40;99.90
23540;DHT22;11947;50.810;4.394;2022-11-20T13:47:03;8.30;99.90
23540;DHT22;11947;50.810;4.394;2022-11-20T14:01:18;8.40;99.90
23540;DHT22;11947;50.810;4.394;2022-11-20T14:03:48;8.30;99.90
23540;DHT22;11947;50.810;4.394;2022-11-20T14:06:30;8.30;99.90
23540;DHT22;11947;50.810;4.394;2022-11-20T14:08:57;8.50;99.90
23540;DHT22;11947;50.810;4.394;2022-11-20T14:11:30;8.40;99.90
23540;DHT22;11947;50.810;4.394;2022-11-20T14:14:13;8.30;99.90
23540;DHT22;11947;50.810;4.394;2022-11-20T14:16:39;8.30;99.90
23540;DHT22;11947;50.810;4.394;2022-11-20T14:21:48;8.40;99.90
23540;DHT22;11947;50.810;4.394;2022-11-20T14:24:19;8.30;99.90
23540;DHT22;11947;50.810;4.394;2022-11-20T14:26:59;8.30;99.90
23540;DHT22;11947;50.810;4.394;2022-11-20T14:29:36;8.20;99.90
23540;DHT22;11947;50.810;4.394;2022-11-20T14:32:15;8.20;99.90
23540;DHT22;11947;50.810;4.394;2022-11-20T14:34:44;8.20;99.90
23540;DHT22;11947;50.810;4.394;2022-11-20T14:37:12;8.20;99.90
23540;DHT22;11947;50.810;4.394;2022-11-20T14:39:48;8.30;99.90
23540;DHT22;11947;50.810;4.394;2022-11-20T14:42:34;8.40;99.90
23540;DHT22;11947;50.810;4.394;2022-11-20T14:45:00;8.40;99.90
23540;DHT22;11947;50.810;4.394;2022-11-20T14:47:30;8.50;99.90
23540;DHT22;11947;50.810;4.394;2022-11-20T14:49:57;8.40;99.90
23540;DHT22;11947;50.810;4.394;2022-11-20T14:52:26;8.30;99.90
23540;DHT22;11947;50.810;4.394;2022-11-20T14:54:54;8.40;99.90
23540;DHT22;11947;50.810;4.394;2022-11-20T14:57:28;8.40;99.90
23540;DHT22;11947;50.810;4.394;2022-11-20T15:00:19;8.40;99.90
23540;DHT22;11947;50.810;4.394;2022-11-20T15:02:49;8.40;99.90
23540;DHT22;11947;50.810;4.394;2022-11-20T15:05:17;8.50;99.90
23540;DHT22;11947;50.810;4.394;2022-11-20T15:07:46;8.60;99.90
23540;DHT22;11947;50.810;4.394;2022-11-20T15:10:22;8.70;99.90
23540;DHT22;11947;50.810;4.394;2022-11-20T15:12:59;8.70;99.90
23540;DHT22;11947;50.810;4.394;2022-11-20T15:15:33;8.70;99.90
23540;DHT22;11947;50.810;4.394;2022-11-20T15:18:01;8.70;99.90
23540;DHT22;11947;50.810;4.394;2022-11-20T15:20:30;8.70;99.90
23540;DHT22;11947;50.810;4.394;2022-11-20T15:22:56;8.80;99.90
23540;DHT22;11947;50.810;4.394;2022-11-20T15:25:22;8.80;99.90
23540;DHT22;11947;50.810;4.394;2022-11-20T15:27:52;8.80;99.90
23540;DHT22;11947;50.810;4.394;2022-11-20T15:30:20;8.70;99.90
23540;DHT22;11947;50.810;4.394;2022-11-20T15:32:46;8.70;99.90
23540;DHT22;11947;50.810;4.394;2022-11-20T15:35:13;8.70;99.90
23540;DHT22;11947;50.810;4.394;2022-11-20T15:37:42;8.90;99.90
23540;DHT22;11947;50.810;4.394;2022-11-20T15:40:08;8.90;99.90
23540;DHT22;11947;50.810;4.394;2022-11-20T15:42:34;8.90;99.90
23540;DHT22;11947;50.810;4.394;2022-11-20T15:45:01;8.90;99.90
23540;DHT22;11947;50.810;4.394;2022-11-20T15:47:34;9.00;99.90
23540;DHT22;11947;50.810;4.394;2022-11-20T15:50:00;8.90;99.90
23540;DHT22;11947;50.810;4.394;2022-11-20T15:52:26;8.90;99.90
23540;DHT22;11947;50.810;4.394;2022-11-20T15:54:54;8.90;99.90
23540;DHT22;11947;50.810;4.394;2022-11-20T15:57:20;9.00;99.90
23540;DHT22;11947;50.810;4.394;2022-11-20T15:59:45;8.90;99.90
23540;DHT22;11947;50.810;4.394;2022-11-20T16:02:12;9.10;99.90
23540;DHT22;11947;50.810;4.394;2022-11-20T16:04:38;9.10;99.90
23540;DHT22;11947;50.810;4.394;2022-11-20T16:07:04;9.10;99.90
23540;DHT22;11947;50.810;4.394;2022-11-20T16:09:30;9.10;99.90
23540;DHT22;11947;50.810;4.394;2022-11-20T16:11:55;9.00;99.90
23540;DHT22;11947;50.810;4.394;2022-11-20T16:14:23;9.10;99.90
23540;DHT22;11947;50.810;4.394;2022-11-20T16:17:07;9.10;99.90
23540;DHT22;11947;50.810;4.394;2022-11-20T16:19:33;9.30;99.90
23540;DHT22;11947;50.810;4.394;2022-11-20T16:21:59;9.30;99.90
23540;DHT22;11947;50.810;4.394;2022-11-20T16:24:27;9.20;99.90
23540;DHT22;11947;50.810;4.394;2022-11-20T16:26:54;9.20;99.90
23540;DHT22;11947;50.810;4.394;2022-11-20T16:29:22;9.10;99.90
23540;DHT22;11947;50.810;4.394;2022-11-20T16:31:51;9.10;99.90
23540;DHT22;11947;50.810;4.394;2022-11-20T16:34:17;9.10;99.90
23540;DHT22;11947;50.810;4.394;2022-11-20T16:36:44;9.10;99.90
23540;DHT22;11947;50.810;4.394;2022-11-20T16:39:13;9.00;99.90
23540;DHT22;11947;50.810;4.394;2022-11-20T16:41:39;8.90;99.90
23540;DHT22;11947;50.810;4.394;2022-11-20T16:44:11;9.00;99.90
23540;DHT22;11947;50.810;4.394;2022-11-20T16:46:38;9.00;99.90
23540;DHT22;11947;50.810;4.394;2022-11-20T16:49:11;9.10;99.90
23540;DHT22;11947;50.810;4.394;2022-11-20T16:51:37;8.90;99.90
23540;DHT22;11947;50.810;4.394;2022-11-20T16:54:07;8.80;99.90
23540;DHT22;11947;50.810;4.394;2022-11-20T16:56:33;8.90;99.90
23540;DHT22;11947;50.810;4.394;2022-11-20T16:58:59;8.90;99.90
23540;DHT22;11947;50.810;4.394;2022-11-20T17:01:26;9.00;99.90
23540;DHT22;11947;50.810;4.394;2022-11-20T17:04:01;8.90;99.90
23540;DHT22;11947;50.810;4.394;2022-11-20T17:06:28;8.90;99.90
23540;DHT22;11947;50.810;4.394;2022-11-20T17:08:55;9.00;99.90
23540;DHT22;11947;50.810;4.394;2022-11-20T17:11:22;9.00;99.90
23540;DHT22;11947;50.810;4.394;2022-11-20T17:13:48;9.00;99.90
23540;DHT22;11947;50.810;4.394;2022-11-20T17:16:20;9.00;99.90
23540;DHT22;11947;50.810;4.394;2022-11-20T17:18:46;8.90;99.90
23540;DHT22;11947;50.810;4.394;2022-11-20T17:21:14;8.90;99.90
23540;DHT22;11947;50.810;4.394;2022-11-20T17:23:41;8.80;99.90
23540;DHT22;11947;50.810;4.394;2022-11-20T17:26:13;8.90;99.90
23540;DHT22;11947;50.810;4.394;2022-11-20T17:28:40;8.80;99.90
23540;DHT22;11947;50.810;4.394;2022-11-20T17:31:11;8.80;99.90
23540;DHT22;11947;50.810;4.394;2022-11-20T17:33:41;8.70;99.90
23540;DHT22;11947;50.810;4.394;2022-11-20T17:36:09;8.60;99.90
23540;DHT22;11947;50.810;4.394;2022-11-20T17:38:35;8.60;99.90
23540;DHT22;11947;50.810;4.394;2022-11-20T17:41:06;8.70;99.90
23540;DHT22;11947;50.810;4.394;2022-11-20T17:43:32;8.70;99.90
23540;DHT22;11947;50.810;4.394;2022-11-20T17:45:58;8.70;99.90
23540;DHT22;11947;50.810;4.394;2022-11-20T17:48:24;8.70;99.90
23540;DHT22;11947;50.810;4.394;2022-11-20T17:50:50;8.60;99.90
23540;DHT22;11947;50.810;4.394;2022-11-20T17:53:19;8.60;99.90
23540;DHT22;11947;50.810;4.394;2022-11-20T17:55:56;8.60;99.90
23540;DHT22;11947;50.810;4.394;2022-11-20T17:58:40;8.70;99.90
23540;DHT22;11947;50.810;4.394;2022-11-20T18:01:08;8.80;99.90
23540;DHT22;11947;50.810;4.394;2022-11-20T18:03:34;8.80;99.90
23540;DHT22;11947;50.810;4.394;2022-11-20T18:06:17;8.90;99.90
23540;DHT22;11947;50.810;4.394;2022-11-20T18:08:49;8.90;99.90
23540;DHT22;11947;50.810;4.394;2022-11-20T18:13:47;9.10;99.90
23540;DHT22;11947;50.810;4.394;2022-11-20T18:16:34;9.20;99.90
23540;DHT22;11947;50.810;4.394;2022-11-20T18:19:00;9.10;99.90
23540;DHT22;11947;50.810;4.394;2022-11-20T18:21:27;9.00;99.90
23540;DHT22;11947;50.810;4.394;2022-11-20T18:23:57;9.00;99.90
23540;DHT22;11947;50.810;4.394;2022-11-20T18:26:23;9.10;99.90
23540;DHT22;11947;50.810;4.394;2022-11-20T18:28:50;9.00;99.90
23540;DHT22;11947;50.810;4.394;2022-11-20T18:31:16;9.00;99.90
23540;DHT22;11947;50.810;4.394;2022-11-20T18:33:45;8.90;99.90
23540;DHT22;11947;50.810;4.394;2022-11-20T18:36:16;8.90;99.90
23540;DHT22;11947;50.810;4.394;2022-11-20T18:38:47;8.90;99.90
23540;DHT22;11947;50.810;4.394;2022-11-20T18:41:14;8.80;99.90
23540;DHT22;11947;50.810;4.394;2022-11-20T18:44:07;8.80;99.90
23540;DHT22;11947;50.810;4.394;2022-11-20T18:46:54;8.80;99.90
23540;DHT22;11947;50.810;4.394;2022-11-20T18:49:20;8.70;99.90
23540;DHT22;11947;50.810;4.394;2022-11-20T18:51:45;8.70;99.90
23540;DHT22;11947;50.810;4.394;2022-11-20T18:54:13;8.70;99.90
23540;DHT22;11947;50.810;4.394;2022-11-20T18:56:50;8.70;99.90
23540;DHT22;11947;50.810;4.394;2022-11-20T18:59:17;8.70;99.90